createdAt,value
2022-08-29T00:01:59.296Z,101598.00
2022-08-29T00:04:25.989Z,101597.13
2022-08-29T00:06:52.744Z,101596.06
2022-08-29T00:09:19.206Z,101591.94
2022-08-29T00:11:46.566Z,101586.19
2022-08-29T00:14:21.013Z,101584.00
2022-08-29T00:16:50.535Z,101576.06
2022-08-29T00:19:17.246Z,101577.16
2022-08-29T00:21:43.886Z,101584.81
2022-08-29T00:24:10.695Z,101573.66
2022-08-29T00:26:37.167Z,101573.94
2022-08-29T00:29:04.265Z,101581.00
2022-08-29T00:31:30.763Z,101581.88
2022-08-29T00:33:57.699Z,101583.47
2022-08-29T00:36:26.243Z,101576.94
2022-08-29T00:38:58.398Z,101584.56
2022-08-29T00:41:24.972Z,101581.50
2022-08-29T00:43:51.717Z,101576.28
2022-08-29T00:46:46.578Z,101587.91
2022-08-29T00:49:40.054Z,101592.16
2022-08-29T00:52:35.718Z,101581.81
2022-08-29T00:55:11.337Z,101582.91
2022-08-29T00:57:40.741Z,101576.50
2022-08-29T01:00:08.822Z,101584.69
2022-08-29T01:02:40.326Z,101584.69
2022-08-29T01:05:13.302Z,101595.63
2022-08-29T01:07:41.670Z,101587.97
2022-08-29T01:10:13.406Z,101578.94
2022-08-29T01:12:41.044Z,101582.75
2022-08-29T01:15:10.770Z,101579.22
2022-08-29T01:17:45.411Z,101584.03
2022-08-29T01:20:24.234Z,101585.41
2022-08-29T01:23:01.108Z,101590.84
2022-08-29T01:25:33.481Z,101596.81
2022-08-29T01:28:06.627Z,101591.63
2022-08-29T01:30:33.615Z,101595.25
2022-08-29T01:33:00.952Z,101588.16
2022-08-29T01:35:30.175Z,101592.53
2022-08-29T01:37:56.851Z,101588.47
2022-08-29T01:40:28.989Z,101581.09
2022-08-29T01:42:57.538Z,101586.22
2022-08-29T01:45:24.222Z,101589.78
2022-08-29T01:47:50.727Z,101581.81
2022-08-29T01:50:17.313Z,101579.31
2022-08-29T01:52:43.916Z,101583.34
2022-08-29T01:55:11.096Z,101589.94
2022-08-29T01:57:40.600Z,101590.34
2022-08-29T02:00:09.643Z,101598.69
2022-08-29T02:02:37.225Z,101603.25
2022-08-29T02:05:05.773Z,101595.63
2022-08-29T02:07:32.440Z,101600.53
2022-08-29T02:09:59.630Z,101596.69
2022-08-29T02:12:26.227Z,101601.81
2022-08-29T02:14:52.983Z,101605.47
2022-08-29T02:17:19.889Z,101597.69
2022-08-29T02:19:46.497Z,101608.91
2022-08-29T02:22:14.067Z,101610.25
2022-08-29T02:24:41.027Z,101610.16
2022-08-29T02:27:08.775Z,101609.59
2022-08-29T02:29:38.390Z,101605.22
2022-08-29T02:32:08.420Z,101614.47
2022-08-29T02:34:35.454Z,101609.44
2022-08-29T02:37:02.693Z,101605.34
2022-08-29T02:39:29.572Z,101608.03
2022-08-29T02:41:56.703Z,101610.19
2022-08-29T02:44:23.404Z,101606.38
2022-08-29T02:46:50.262Z,101610.78
2022-08-29T02:49:16.942Z,101611.97
2022-08-29T02:51:45.035Z,101609.28
2022-08-29T02:54:12.553Z,101599.56
2022-08-29T02:56:40.009Z,101602.78
2022-08-29T02:59:08.336Z,101593.22
2022-08-29T03:01:38.416Z,101594.09
2022-08-29T03:04:05.583Z,101597.69
2022-08-29T03:06:32.050Z,101584.38
2022-08-29T03:08:58.505Z,101587.34
2022-08-29T03:11:25.085Z,101583.22
2022-08-29T03:13:52.042Z,101581.59
2022-08-29T03:16:24.182Z,101576.44
2022-08-29T03:18:50.829Z,101582.25
2022-08-29T03:21:22.476Z,101576.84
2022-08-29T03:23:51.692Z,101585.84
2022-08-29T03:26:19.248Z,101582.31
2022-08-29T03:28:45.889Z,101583.91
2022-08-29T03:31:13.420Z,101590.75
2022-08-29T03:33:39.997Z,101588.31
2022-08-29T03:36:14.314Z,101588.31
2022-08-29T03:38:43.531Z,101599.84
2022-08-29T03:41:10.740Z,101591.06
2022-08-29T03:43:37.506Z,101595.69
2022-08-29T03:46:04.275Z,101598.16
2022-08-29T03:48:30.953Z,101595.50
2022-08-29T03:50:57.860Z,101596.63
2022-08-29T03:53:24.363Z,101597.44
2022-08-29T03:55:50.991Z,101593.97
2022-08-29T03:58:17.999Z,101600.22
2022-08-29T04:00:46.759Z,101601.06
2022-08-29T04:03:13.691Z,101599.47
2022-08-29T04:05:40.854Z,101598.66
2022-08-29T04:08:08.486Z,101598.38
2022-08-29T04:10:38.199Z,101593.50
2022-08-29T04:13:06.320Z,101599.75
2022-08-29T04:15:33.396Z,101599.50
2022-08-29T04:18:02.393Z,101608.56
2022-08-29T04:20:32.841Z,101602.25
2022-08-29T04:22:59.662Z,101599.31
2022-08-29T04:25:27.962Z,101599.81
2022-08-29T04:27:55.557Z,101602.31
2022-08-29T04:30:25.185Z,101601.47
2022-08-29T04:32:52.608Z,101600.09
2022-08-29T04:35:19.733Z,101606.94
2022-08-29T04:37:46.810Z,101606.69
2022-08-29T04:40:16.190Z,101605.56
2022-08-29T04:42:43.623Z,101608.63
2022-08-29T04:45:12.554Z,101608.91
2022-08-29T04:47:39.896Z,101613.25
2022-08-29T04:50:07.881Z,101613.81
2022-08-29T04:52:34.394Z,101608.09
2022-08-29T04:55:01.021Z,101610.31
2022-08-29T04:57:27.573Z,101608.13
2022-08-29T04:59:58.856Z,101606.44
2022-08-29T05:02:27.736Z,101611.63
2022-08-29T05:04:56.454Z,101614.66
2022-08-29T05:07:26.031Z,101615.44
2022-08-29T05:09:58.730Z,101612.47
2022-08-29T05:12:26.117Z,101607.00
2022-08-29T05:14:54.090Z,101616.59
2022-08-29T05:17:21.648Z,101617.13
2022-08-29T05:19:49.180Z,101614.41
2022-08-29T05:22:20.033Z,101622.06
2022-08-29T05:24:47.543Z,101618.53
2022-08-29T05:27:16.928Z,101612.53
2022-08-29T05:29:46.698Z,101608.16
2022-08-29T05:32:18.743Z,101599.97
2022-08-29T05:34:46.512Z,101603.81
2022-08-29T05:37:16.004Z,101621.31
2022-08-29T05:39:43.007Z,101626.22
2022-08-29T05:42:12.111Z,101623.22
2022-08-29T05:44:40.064Z,101632.53
2022-08-29T05:47:09.809Z,101636.06
2022-08-29T05:49:37.967Z,101638.78
2022-08-29T05:52:05.884Z,101641.25
2022-08-29T05:54:34.349Z,101648.09
2022-08-29T05:57:01.069Z,101647.81
2022-08-29T05:59:27.579Z,101643.16
2022-08-29T06:01:54.156Z,101647.53
2022-08-29T06:04:20.823Z,101640.41
2022-08-29T06:06:47.392Z,101646.66
2022-08-29T06:09:14.262Z,101650.50
2022-08-29T06:11:40.998Z,101643.66
2022-08-29T06:14:07.612Z,101651.56
2022-08-29T06:16:34.255Z,101647.19
2022-08-29T06:19:01.397Z,101643.94
2022-08-29T06:21:27.938Z,101646.94
2022-08-29T06:23:54.610Z,101645.56
2022-08-29T06:26:21.116Z,101643.06
2022-08-29T06:28:47.705Z,101647.16
2022-08-29T06:31:22.788Z,101651.53
2022-08-29T06:33:55.062Z,101651.28
2022-08-29T06:36:21.727Z,101650.41
2022-08-29T06:38:48.190Z,101649.81
2022-08-29T06:41:16.843Z,101653.88
2022-08-29T06:43:44.163Z,101644.56
2022-08-29T06:46:32.661Z,101649.09
2022-08-29T06:49:01.746Z,101654.44
2022-08-29T06:51:32.948Z,101655.25
2022-08-29T06:54:00.770Z,101651.94
2022-08-29T06:56:28.810Z,101666.00
2022-08-29T06:58:56.175Z,101663.03
2022-08-29T07:01:24.009Z,101671.28
2022-08-29T07:03:53.841Z,101663.28
2022-08-29T07:06:20.580Z,101669.06
2022-08-29T07:08:55.838Z,101655.88
2022-08-29T07:11:24.195Z,101663.06
2022-08-29T07:13:50.754Z,101664.38
2022-08-29T07:16:18.840Z,101662.66
2022-08-29T07:18:46.772Z,101657.13
2022-08-29T07:21:20.298Z,101663.13
2022-08-29T07:23:48.146Z,101661.41
2022-08-29T07:26:38.666Z,101662.97
2022-08-29T07:29:10.123Z,101665.34
2022-08-29T07:31:39.156Z,101659.00
2022-08-29T07:34:06.486Z,101667.75
2022-08-29T07:36:34.372Z,101671.38
2022-08-29T07:39:02.375Z,101675.56
2022-08-29T07:41:30.288Z,101667.34
2022-08-29T07:43:57.721Z,101661.75
2022-08-29T07:46:25.556Z,101675.78
2022-08-29T07:48:52.822Z,101678.72
2022-08-29T07:51:22.926Z,101665.25
2022-08-29T07:53:50.661Z,101672.47
2022-08-29T07:56:43.104Z,101665.50
2022-08-29T07:59:10.297Z,101661.53
2022-08-29T08:01:37.025Z,101669.84
2022-08-29T08:04:04.389Z,101668.34
2022-08-29T08:06:31.020Z,101674.38
2022-08-29T08:09:03.354Z,101672.81
2022-08-29T08:11:29.856Z,101681.13
2022-08-29T08:13:57.542Z,101678.25
2022-08-29T08:16:26.680Z,101684.50
2022-08-29T08:18:53.984Z,101678.19
2022-08-29T08:21:20.801Z,101687.09
2022-08-29T08:23:47.348Z,101684.50
2022-08-29T08:26:14.387Z,101686.06
2022-08-29T08:28:42.204Z,101687.25
2022-08-29T08:31:11.144Z,101687.50
2022-08-29T08:33:42.263Z,101686.38
2022-08-29T08:36:30.571Z,101690.13
2022-08-29T08:38:59.511Z,101680.44
2022-08-29T08:42:04.306Z,101690.31
2022-08-29T08:44:50.669Z,101692.81
2022-08-29T08:47:28.833Z,101695.50
2022-08-29T08:50:12.313Z,101697.16
2022-08-29T08:52:58.664Z,101713.69
2022-08-29T08:55:49.289Z,101710.81
2022-08-29T08:58:34.321Z,101711.91
2022-08-29T09:01:23.277Z,101706.88
2022-08-29T09:04:06.093Z,101705.50
2022-08-29T09:06:55.080Z,101704.72
2022-08-29T09:09:46.497Z,101703.91
2022-08-29T09:12:25.165Z,101697.53
2022-08-29T09:14:51.968Z,101698.06
2022-08-29T09:17:27.761Z,101704.22
2022-08-29T09:19:56.192Z,101699.75
2022-08-29T09:22:27.416Z,101700.94
2022-08-29T09:25:07.353Z,101702.13
2022-08-29T09:27:35.758Z,101707.19
2022-08-29T09:30:14.017Z,101708.03
2022-08-29T09:32:57.517Z,101705.91
2022-08-29T09:35:42.298Z,101711.25
2022-08-29T09:38:18.121Z,101717.81
2022-08-29T09:41:03.766Z,101697.63
2022-08-29T09:43:44.160Z,101707.75
2022-08-29T09:46:11.433Z,101706.56
2022-08-29T09:48:44.518Z,101697.56
2022-08-29T09:51:20.487Z,101701.03
2022-08-29T09:53:47.066Z,101701.94
2022-08-29T09:56:21.055Z,101691.34
2022-08-29T09:59:02.223Z,101697.78
2022-08-29T10:01:29.869Z,101695.16
2022-08-29T10:04:00.705Z,101695.81
2022-08-29T10:06:32.134Z,101700.69
2022-08-29T10:09:05.971Z,101696.00
2022-08-29T10:11:54.255Z,101694.84
2022-08-29T10:14:36.194Z,101699.84
2022-08-29T10:17:56.689Z,101697.53
2022-08-29T10:20:29.052Z,101702.09
2022-08-29T10:23:04.707Z,101707.22
2022-08-29T10:25:41.481Z,101703.31
2022-08-29T10:28:16.972Z,101699.03
2022-08-29T10:30:57.079Z,101707.09
2022-08-29T10:33:57.376Z,101707.75
2022-08-29T10:36:45.255Z,101696.81
2022-08-29T10:39:32.798Z,101692.28
2022-08-29T10:42:07.739Z,101689.00
2022-08-29T10:45:09.873Z,101690.47
2022-08-29T10:48:00.483Z,101683.63
2022-08-29T10:50:44.572Z,101679.25
2022-08-29T10:53:31.418Z,101679.25
2022-08-29T10:56:05.891Z,101670.00
2022-08-29T10:58:45.632Z,101672.72
2022-08-29T11:01:22.275Z,101676.81
2022-08-29T11:03:52.996Z,101673.38
2022-08-29T11:06:27.594Z,101674.47
2022-08-29T11:09:24.895Z,101666.72
2022-08-29T11:12:10.458Z,101663.81
2022-08-29T11:14:52.122Z,101671.28
2022-08-29T11:17:21.646Z,101679.44
2022-08-29T11:19:55.213Z,101676.16
2022-08-29T11:22:26.911Z,101671.28
2022-08-29T11:25:13.173Z,101676.34
2022-08-29T11:28:06.473Z,101683.28
2022-08-29T11:30:56.730Z,101688.66
2022-08-29T11:33:41.324Z,101688.84
2022-08-29T11:36:39.303Z,101691.31
2022-08-29T11:39:24.205Z,101690.97
2022-08-29T11:41:58.630Z,101689.84
2022-08-29T11:44:31.186Z,101685.91
2022-08-29T11:46:58.818Z,101683.94
2022-08-29T11:49:46.661Z,101696.50
2022-08-29T11:52:22.308Z,101697.97
2022-08-29T11:54:54.578Z,101686.22
2022-08-29T11:57:21.005Z,101686.00
2022-08-29T11:59:56.545Z,101679.16
2022-08-29T12:02:31.847Z,101681.78
2022-08-29T12:05:16.591Z,101676.72
2022-08-29T12:07:49.889Z,101681.53
2022-08-29T12:10:25.293Z,101679.56
2022-08-29T12:12:53.872Z,101673.97
2022-08-29T12:15:29.646Z,101669.94
2022-08-29T12:18:03.485Z,101670.81
2022-08-29T12:20:30.175Z,101666.66
2022-08-29T12:22:56.622Z,101657.03
2022-08-29T12:25:44.965Z,101658.91
2022-08-29T12:28:40.851Z,101656.72
2022-08-29T12:31:13.895Z,101649.84
2022-08-29T12:34:05.620Z,101645.34
2022-08-29T12:36:53.449Z,101642.81
2022-08-29T12:39:22.941Z,101637.78
2022-08-29T12:42:01.491Z,101627.56
2022-08-29T12:44:34.705Z,101625.00
2022-08-29T12:47:07.127Z,101627.66
2022-08-29T12:49:53.067Z,101626.56
2022-08-29T12:52:32.324Z,101626.06
2022-08-29T12:55:19.311Z,101628.16
2022-08-29T12:57:47.405Z,101627.72
2022-08-29T13:00:21.108Z,101621.25
2022-08-29T13:03:14.951Z,101616.47
2022-08-29T13:05:42.707Z,101612.28
2022-08-29T13:08:26.473Z,101620.00
2022-08-29T13:10:59.441Z,101616.28
2022-08-29T13:13:27.943Z,101612.84
2022-08-29T13:15:57.619Z,101609.63
2022-08-29T13:18:24.461Z,101617.63
2022-08-29T13:21:26.311Z,101596.34
2022-08-29T13:24:16.629Z,101589.69
2022-08-29T13:27:03.104Z,101591.00
2022-08-29T13:29:40.226Z,101592.47
2022-08-29T13:32:23.799Z,101586.63
2022-08-29T13:35:15.152Z,101581.47
2022-08-29T13:37:44.852Z,101573.13
2022-08-29T13:40:37.129Z,101574.31
2022-08-29T13:43:06.097Z,101573.69
2022-08-29T13:45:34.005Z,101578.81
2022-08-29T13:48:20.242Z,101571.97
2022-08-29T13:53:19.219Z,101565.00
2022-08-29T13:55:45.858Z,101568.78
2022-08-29T13:58:14.720Z,101552.94
2022-08-29T14:00:41.841Z,101550.47
2022-08-29T14:03:09.361Z,101559.72
2022-08-29T14:05:36.877Z,101555.88
2022-08-29T14:08:05.327Z,101552.88
2022-08-29T14:10:31.926Z,101547.19
2022-08-29T14:12:58.605Z,101549.47
2022-08-29T14:15:25.110Z,101545.06
2022-08-29T14:17:52.667Z,101549.38
2022-08-29T14:20:19.526Z,101552.03
2022-08-29T14:22:47.039Z,101547.56
2022-08-29T14:25:16.146Z,101553.94
2022-08-29T14:27:43.583Z,101550.84
2022-08-29T14:30:12.683Z,101549.69
2022-08-29T14:32:39.180Z,101552.47
2022-08-29T14:35:07.343Z,101544.59
2022-08-29T14:37:34.851Z,101553.25
2022-08-29T14:40:02.051Z,101551.28
2022-08-29T14:42:30.318Z,101549.19
2022-08-29T14:44:56.853Z,101534.28
2022-08-29T14:47:23.385Z,101543.22
2022-08-29T14:49:49.892Z,101541.69
2022-08-29T14:52:16.600Z,101544.13
2022-08-29T14:54:43.947Z,101536.72
2022-08-29T14:57:12.338Z,101552.91
2022-08-29T14:59:39.727Z,101548.97
2022-08-29T15:02:10.911Z,101543.66
2022-08-29T15:04:38.179Z,101545.00
2022-08-29T15:07:10.741Z,101545.00
2022-08-29T15:09:38.022Z,101536.69
2022-08-29T15:12:05.233Z,101540.41
2022-08-29T15:14:32.046Z,101537.75
2022-08-29T15:16:58.592Z,101538.56
2022-08-29T15:19:53.801Z,101531.41
2022-08-29T15:22:12.567Z,101530.25
2022-08-29T15:24:39.620Z,101530.91
2022-08-29T15:27:06.634Z,101536.69
2022-08-29T15:29:34.044Z,101535.53
2022-08-29T15:32:00.554Z,101534.50
2022-08-29T15:34:29.251Z,101534.28
2022-08-29T15:36:56.800Z,101536.25
2022-08-29T15:39:27.938Z,101523.53
2022-08-29T15:41:55.937Z,101521.72
2022-08-29T15:44:22.626Z,101530.38
2022-08-29T15:46:50.780Z,101522.16
2022-08-29T15:49:19.185Z,101527.22
2022-08-29T15:51:46.192Z,101524.78
2022-08-29T15:54:13.638Z,101525.63
2022-08-29T15:56:40.810Z,101520.81
2022-08-29T15:59:17.035Z,101518.72
2022-08-29T16:01:50.928Z,101525.06
2022-08-29T16:04:20.628Z,101519.88
2022-08-29T16:06:47.318Z,101516.03
2022-08-29T16:09:15.962Z,101517.91
2022-08-29T16:11:44.425Z,101502.94
2022-08-29T16:16:58.618Z,101516.09
2022-08-29T16:19:25.110Z,101516.13
2022-08-29T16:21:53.225Z,101518.69
2022-08-29T16:24:21.720Z,101507.13
2022-08-29T16:26:48.370Z,101513.81
2022-08-29T16:29:14.849Z,101513.94
2022-08-29T16:31:48.092Z,101504.09
2022-08-29T16:34:14.688Z,101510.81
2022-08-29T16:36:42.603Z,101499.84
2022-08-29T16:39:09.709Z,101499.03
2022-08-29T16:41:36.443Z,101501.47
2022-08-29T16:44:05.020Z,101496.81
2022-08-29T16:46:32.080Z,101505.94
2022-08-29T16:48:58.581Z,101505.59
2022-08-29T16:51:27.059Z,101498.78
2022-08-29T16:53:54.427Z,101496.47
2022-08-29T16:56:21.429Z,101500.16
2022-08-29T16:59:00.274Z,101498.41
2022-08-29T17:01:33.790Z,101498.31
2022-08-29T17:04:02.691Z,101495.75
2022-08-29T17:06:31.321Z,101499.41
2022-08-29T17:08:58.874Z,101506.19
2022-08-29T17:11:25.626Z,101505.78
2022-08-29T17:13:54.251Z,101504.38
2022-08-29T17:16:21.352Z,101507.22
2022-08-29T17:18:48.505Z,101504.44
2022-08-29T17:21:15.811Z,101501.38
2022-08-29T17:23:43.374Z,101502.47
2022-08-29T17:26:12.780Z,101507.25
2022-08-29T17:28:40.730Z,101511.66
2022-08-29T17:31:08.128Z,101505.78
2022-08-29T17:33:34.771Z,101503.25
2022-08-29T17:36:02.932Z,101511.81
2022-08-29T17:38:31.032Z,101509.53
2022-08-29T17:40:59.996Z,101503.91
2022-08-29T17:43:27.887Z,101500.31
2022-08-29T17:45:55.413Z,101499.75
2022-08-29T17:48:22.537Z,101506.13
2022-08-29T17:50:49.991Z,101508.63
2022-08-29T17:53:18.407Z,101508.19
2022-08-29T17:55:46.033Z,101508.50
2022-08-29T17:58:14.583Z,101512.97
2022-08-29T18:00:41.671Z,101517.38
2022-08-29T18:03:08.220Z,101513.00
2022-08-29T18:05:34.815Z,101508.78
2022-08-29T18:08:03.264Z,101520.50
2022-08-29T18:10:29.910Z,101523.59
2022-08-29T18:12:56.944Z,101517.94
2022-08-29T18:15:23.578Z,101514.69
2022-08-29T18:17:51.564Z,101517.28
2022-08-29T18:20:21.515Z,101516.81
2022-08-29T18:22:49.688Z,101520.25
2022-08-29T18:25:17.218Z,101524.13
2022-08-29T18:27:50.192Z,101524.44
2022-08-29T18:30:17.083Z,101523.94
2022-08-29T18:32:43.854Z,101534.66
2022-08-29T18:35:11.750Z,101527.31
2022-08-29T18:37:38.623Z,101534.78
2022-08-29T18:40:07.556Z,101537.22
2022-08-29T18:42:40.784Z,101544.16
2022-08-29T18:45:09.494Z,101545.28
2022-08-29T18:47:36.733Z,101551.44
2022-08-29T18:50:24.959Z,101549.91
2022-08-29T18:52:52.546Z,101555.72
2022-08-29T18:55:23.339Z,101556.16
2022-08-29T18:57:51.138Z,101556.63
2022-08-29T19:00:21.262Z,101561.94
2022-08-29T19:02:48.885Z,101570.69
2022-08-29T19:05:17.147Z,101574.38
2022-08-29T19:07:43.732Z,101570.41
2022-08-29T19:10:12.790Z,101574.78
2022-08-29T19:12:39.672Z,101576.50
2022-08-29T19:15:08.136Z,101581.53
2022-08-29T19:17:35.889Z,101574.31
2022-08-29T19:20:21.081Z,101583.34
2022-08-29T19:22:47.682Z,101585.16
2022-08-29T19:25:14.542Z,101587.53
2022-08-29T19:27:44.087Z,101592.41
2022-08-29T19:30:38.155Z,101593.13
2022-08-29T19:33:06.424Z,101597.22
2022-08-29T19:35:33.084Z,101602.25
2022-08-29T19:37:59.861Z,101602.16
2022-08-29T19:40:27.203Z,101604.16
2022-08-29T19:42:55.738Z,101610.31
2022-08-29T19:45:23.727Z,101605.75
2022-08-29T19:47:52.164Z,101619.41
2022-08-29T19:50:21.202Z,101607.97
2022-08-29T19:52:48.204Z,101613.19
2022-08-29T19:55:17.751Z,101611.25
2022-08-29T19:57:47.342Z,101619.53
2022-08-29T20:00:17.283Z,101623.00
2022-08-29T20:02:45.876Z,101623.00
2022-08-29T20:05:13.738Z,101621.63
2022-08-29T20:07:42.061Z,101626.50
2022-08-29T20:10:10.125Z,101618.34
2022-08-29T20:12:36.957Z,101626.69
2022-08-29T20:15:05.817Z,101629.56
2022-08-29T20:17:34.437Z,101625.78
2022-08-29T20:20:12.287Z,101626.81
2022-08-29T20:22:38.903Z,101623.66
2022-08-29T20:25:06.995Z,101625.22
2022-08-29T20:27:34.794Z,101626.81
2022-08-29T20:30:03.395Z,101636.78
2022-08-29T20:32:30.440Z,101636.22
2022-08-29T20:34:57.048Z,101639.09
2022-08-29T20:37:25.818Z,101643.16
2022-08-29T20:39:53.208Z,101640.78
2022-08-29T20:42:22.225Z,101645.88
2022-08-29T20:44:48.718Z,101648.00
2022-08-29T20:47:20.022Z,101654.41
2022-08-29T20:49:48.255Z,101659.44
2022-08-29T20:52:18.505Z,101669.41
2022-08-29T20:54:46.255Z,101669.50
2022-08-29T20:57:14.773Z,101672.97
2022-08-29T20:59:42.940Z,101680.38
2022-08-29T21:02:10.008Z,101679.03
2022-08-29T21:04:56.038Z,101686.25
2022-08-29T21:07:22.871Z,101685.78
2022-08-29T21:09:50.403Z,101686.06
2022-08-29T21:12:18.609Z,101697.75
2022-08-29T21:14:45.114Z,101695.66
2022-08-29T21:17:18.082Z,101701.59
2022-08-29T21:19:45.362Z,101701.38
2022-08-29T21:22:13.564Z,101703.16
2022-08-29T21:24:40.955Z,101704.03
2022-08-29T21:27:07.592Z,101702.50
2022-08-29T21:29:34.331Z,101700.56
2022-08-29T21:32:00.940Z,101705.03
2022-08-29T21:34:27.401Z,101707.31
2022-08-29T21:36:54.478Z,101711.69
2022-08-29T21:39:27.956Z,101702.31
2022-08-29T21:42:02.968Z,101702.94
2022-08-29T21:44:30.361Z,101703.97
2022-08-29T21:47:03.148Z,101702.38
2022-08-29T21:49:32.572Z,101694.81
2022-08-29T21:51:59.333Z,101690.03
2022-08-29T21:54:26.675Z,101697.03
2022-08-29T21:56:53.586Z,101712.59
2022-08-29T21:59:21.577Z,101708.47
2022-08-29T22:01:52.732Z,101704.44
2022-08-29T22:04:28.528Z,101711.22
2022-08-29T22:06:57.400Z,101703.41
2022-08-29T22:09:23.954Z,101707.53
2022-08-29T22:11:52.046Z,101706.25
2022-08-29T22:14:43.240Z,101709.84
2022-08-29T22:17:11.284Z,101705.50
2022-08-29T22:19:37.781Z,101710.44
2022-08-29T22:22:06.385Z,101699.69
2022-08-29T22:24:33.308Z,101708.53
2022-08-29T22:26:59.931Z,101705.28
2022-08-29T22:29:26.418Z,101709.19
2022-08-29T22:31:53.292Z,101707.88
2022-08-29T22:34:19.828Z,101705.38
2022-08-29T22:36:46.366Z,101706.69
2022-08-29T22:39:13.296Z,101710.81
2022-08-29T22:41:44.195Z,101721.31
2022-08-29T22:44:59.593Z,101717.81
2022-08-29T22:47:00.497Z,101718.84
2022-08-29T22:49:33.357Z,101706.78
2022-08-29T22:52:00.331Z,101721.94
2022-08-29T22:54:36.511Z,101720.56
2022-08-29T22:57:05.798Z,101725.28
2022-08-29T22:59:33.390Z,101721.56
2022-08-29T23:02:01.323Z,101724.38
2022-08-29T23:04:29.476Z,101720.00
2022-08-29T23:06:56.061Z,101720.25
2022-08-29T23:09:22.654Z,101716.91
2022-08-29T23:11:50.320Z,101714.38
2022-08-29T23:14:20.541Z,101716.34
2022-08-29T23:16:48.641Z,101711.94
2022-08-29T23:19:15.207Z,101712.75
2022-08-29T23:21:43.250Z,101705.84
2022-08-29T23:24:10.013Z,101708.66
2022-08-29T23:26:36.971Z,101708.97
2022-08-29T23:29:04.069Z,101707.84
2022-08-29T23:31:30.670Z,101718.00
2022-08-29T23:33:57.254Z,101714.44
2022-08-29T23:36:23.777Z,101708.44
2022-08-29T23:38:52.731Z,101711.75
2022-08-29T23:41:19.629Z,101720.00
2022-08-29T23:43:46.492Z,101719.44
2022-08-29T23:46:13.950Z,101721.88
2022-08-29T23:48:40.926Z,101713.03
2022-08-29T23:51:12.242Z,101715.25
2022-08-29T23:53:38.739Z,101721.84
2022-08-29T23:56:14.121Z,101717.19
2022-08-29T23:58:42.115Z,101715.25
